sensor_id;sensor_type;location;lat;lon;timestamp;P1;durP1;ratioP1;P2;durP2;ratioP2
40755;SDS011;26461;45.630;9.418;2022-07-30T00:01:49;5.72;;;1.17;;
40755;SDS011;26461;45.630;9.418;2022-07-30T00:05:00;4.35;;;2.53;;
40755;SDS011;26461;45.630;9.418;2022-07-30T00:08:10;6.30;;;1.42;;
40755;SDS011;26461;45.630;9.418;2022-07-30T00:11:20;3.53;;;1.48;;
40755;SDS011;26461;45.630;9.418;2022-07-30T00:14:30;10.52;;;1.80;;
40755;SDS011;26461;45.630;9.418;2022-07-30T00:17:40;4.65;;;1.70;;
40755;SDS011;26461;45.630;9.418;2022-07-30T00:20:50;4.30;;;1.35;;
40755;SDS011;26461;45.630;9.418;2022-07-30T00:24:00;3.88;;;3.10;;
40755;SDS011;26461;45.630;9.418;2022-07-30T00:27:10;9.48;;;3.70;;
40755;SDS011;26461;45.630;9.418;2022-07-30T00:30:22;7.47;;;1.67;;
40755;SDS011;26461;45.630;9.418;2022-07-30T00:33:27;6.20;;;2.35;;
40755;SDS011;26461;45.630;9.418;2022-07-30T00:36:38;2.53;;;1.45;;
40755;SDS011;26461;45.630;9.418;2022-07-30T00:39:48;4.05;;;2.88;;
40755;SDS011;26461;45.630;9.418;2022-07-30T00:42:58;4.85;;;2.03;;
40755;SDS011;26461;45.630;9.418;2022-07-30T00:46:08;6.57;;;2.95;;
40755;SDS011;26461;45.630;9.418;2022-07-30T00:49:18;4.13;;;1.58;;
40755;SDS011;26461;45.630;9.418;2022-07-30T00:52:29;6.13;;;2.95;;
40755;SDS011;26461;45.630;9.418;2022-07-30T00:55:41;7.63;;;2.70;;
40755;SDS011;26461;45.630;9.418;2022-07-30T00:58:50;9.13;;;2.97;;
40755;SDS011;26461;45.630;9.418;2022-07-30T01:02:00;7.20;;;2.58;;
40755;SDS011;26461;45.630;9.418;2022-07-30T01:05:11;8.05;;;3.75;;
40755;SDS011;26461;45.630;9.418;2022-07-30T01:08:23;4.70;;;1.75;;
40755;SDS011;26461;45.630;9.418;2022-07-30T01:11:35;11.80;;;2.95;;
40755;SDS011;26461;45.630;9.418;2022-07-30T01:14:46;3.45;;;1.65;;
40755;SDS011;26461;45.630;9.418;2022-07-30T01:17:58;7.20;;;1.88;;
40755;SDS011;26461;45.630;9.418;2022-07-30T01:21:11;4.18;;;1.85;;
40755;SDS011;26461;45.630;9.418;2022-07-30T01:24:32;6.25;;;3.50;;
40755;SDS011;26461;45.630;9.418;2022-07-30T01:27:49;3.42;;;1.58;;
40755;SDS011;26461;45.630;9.418;2022-07-30T01:31:03;3.05;;;1.50;;
40755;SDS011;26461;45.630;9.418;2022-07-30T01:34:15;3.80;;;1.33;;
40755;SDS011;26461;45.630;9.418;2022-07-30T01:37:26;3.92;;;1.27;;
40755;SDS011;26461;45.630;9.418;2022-07-30T01:40:38;3.15;;;1.55;;
40755;SDS011;26461;45.630;9.418;2022-07-30T01:43:51;9.57;;;3.60;;
40755;SDS011;26461;45.630;9.418;2022-07-30T01:47:01;3.13;;;1.88;;
40755;SDS011;26461;45.630;9.418;2022-07-30T01:50:12;3.83;;;1.80;;
40755;SDS011;26461;45.630;9.418;2022-07-30T01:53:24;4.82;;;1.40;;
40755;SDS011;26461;45.630;9.418;2022-07-30T01:56:36;4.03;;;1.95;;
40755;SDS011;26461;45.630;9.418;2022-07-30T01:59:49;7.53;;;1.42;;
40755;SDS011;26461;45.630;9.418;2022-07-30T02:03:04;6.07;;;4.07;;
40755;SDS011;26461;45.630;9.418;2022-07-30T02:06:18;3.58;;;1.77;;
40755;SDS011;26461;45.630;9.418;2022-07-30T02:09:40;4.82;;;1.30;;
40755;SDS011;26461;45.630;9.418;2022-07-30T02:12:55;5.18;;;2.63;;
40755;SDS011;26461;45.630;9.418;2022-07-30T02:16:09;6.68;;;2.60;;
40755;SDS011;26461;45.630;9.418;2022-07-30T02:19:37;7.97;;;2.10;;
40755;SDS011;26461;45.630;9.418;2022-07-30T02:22:51;4.40;;;1.70;;
40755;SDS011;26461;45.630;9.418;2022-07-30T02:26:03;6.90;;;3.20;;
40755;SDS011;26461;45.630;9.418;2022-07-30T02:29:16;4.57;;;2.60;;
40755;SDS011;26461;45.630;9.418;2022-07-30T02:32:34;7.22;;;1.88;;
40755;SDS011;26461;45.630;9.418;2022-07-30T02:35:48;3.45;;;2.55;;
40755;SDS011;26461;45.630;9.418;2022-07-30T02:39:00;7.20;;;4.03;;
40755;SDS011;26461;45.630;9.418;2022-07-30T02:42:12;9.18;;;4.93;;
40755;SDS011;26461;45.630;9.418;2022-07-30T02:45:24;4.03;;;2.70;;
40755;SDS011;26461;45.630;9.418;2022-07-30T02:48:29;9.90;;;2.58;;
40755;SDS011;26461;45.630;9.418;2022-07-30T02:51:40;3.50;;;1.00;;
40755;SDS011;26461;45.630;9.418;2022-07-30T02:54:51;6.65;;;1.88;;
40755;SDS011;26461;45.630;9.418;2022-07-30T02:58:06;6.82;;;1.98;;
40755;SDS011;26461;45.630;9.418;2022-07-30T03:01:17;6.45;;;3.67;;
40755;SDS011;26461;45.630;9.418;2022-07-30T03:04:30;9.63;;;3.25;;
40755;SDS011;26461;45.630;9.418;2022-07-30T03:07:42;4.28;;;1.90;;
40755;SDS011;26461;45.630;9.418;2022-07-30T03:10:54;5.53;;;2.17;;
40755;SDS011;26461;45.630;9.418;2022-07-30T03:14:04;5.32;;;2.20;;
40755;SDS011;26461;45.630;9.418;2022-07-30T03:17:16;7.85;;;3.30;;
40755;SDS011;26461;45.630;9.418;2022-07-30T03:20:28;5.50;;;2.67;;
40755;SDS011;26461;45.630;9.418;2022-07-30T03:23:39;6.80;;;2.38;;
40755;SDS011;26461;45.630;9.418;2022-07-30T03:26:52;6.20;;;2.78;;
40755;SDS011;26461;45.630;9.418;2022-07-30T03:30:04;11.57;;;2.78;;
40755;SDS011;26461;45.630;9.418;2022-07-30T03:33:15;5.43;;;3.42;;
40755;SDS011;26461;45.630;9.418;2022-07-30T03:36:25;6.50;;;1.65;;
40755;SDS011;26461;45.630;9.418;2022-07-30T03:39:38;9.27;;;3.40;;
40755;SDS011;26461;45.630;9.418;2022-07-30T03:42:49;8.35;;;3.22;;
40755;SDS011;26461;45.630;9.418;2022-07-30T03:46:02;5.65;;;1.98;;
40755;SDS011;26461;45.630;9.418;2022-07-30T03:49:16;3.60;;;1.60;;
40755;SDS011;26461;45.630;9.418;2022-07-30T03:52:27;8.07;;;3.08;;
40755;SDS011;26461;45.630;9.418;2022-07-30T03:55:37;3.60;;;2.40;;
40755;SDS011;26461;45.630;9.418;2022-07-30T03:59:12;4.57;;;1.63;;
40755;SDS011;26461;45.630;9.418;2022-07-30T04:02:22;4.30;;;2.05;;
40755;SDS011;26461;45.630;9.418;2022-07-30T04:05:51;5.72;;;2.60;;
40755;SDS011;26461;45.630;9.418;2022-07-30T04:09:01;3.88;;;2.55;;
40755;SDS011;26461;45.630;9.418;2022-07-30T04:12:11;8.93;;;1.85;;
40755;SDS011;26461;45.630;9.418;2022-07-30T04:15:22;6.60;;;1.63;;
40755;SDS011;26461;45.630;9.418;2022-07-30T04:18:38;6.13;;;2.92;;
40755;SDS011;26461;45.630;9.418;2022-07-30T04:21:52;3.72;;;1.33;;
40755;SDS011;26461;45.630;9.418;2022-07-30T04:25:03;3.10;;;1.00;;
40755;SDS011;26461;45.630;9.418;2022-07-30T04:28:15;3.75;;;1.33;;
40755;SDS011;26461;45.630;9.418;2022-07-30T04:31:26;4.10;;;1.40;;
40755;SDS011;26461;45.630;9.418;2022-07-30T04:34:48;4.95;;;1.10;;
40755;SDS011;26461;45.630;9.418;2022-07-30T04:38:18;2.10;;;0.63;;
40755;SDS011;26461;45.630;9.418;2022-07-30T04:41:28;3.03;;;0.98;;
40755;SDS011;26461;45.630;9.418;2022-07-30T04:45:01;2.95;;;0.75;;
40755;SDS011;26461;45.630;9.418;2022-07-30T04:48:32;5.22;;;1.55;;
40755;SDS011;26461;45.630;9.418;2022-07-30T04:51:46;4.80;;;1.27;;
40755;SDS011;26461;45.630;9.418;2022-07-30T04:54:58;8.35;;;1.83;;
40755;SDS011;26461;45.630;9.418;2022-07-30T04:58:12;4.70;;;1.55;;
40755;SDS011;26461;45.630;9.418;2022-07-30T05:01:26;4.20;;;1.23;;
40755;SDS011;26461;45.630;9.418;2022-07-30T05:04:43;8.85;;;2.00;;
40755;SDS011;26461;45.630;9.418;2022-07-30T05:07:54;4.88;;;1.48;;
40755;SDS011;26461;45.630;9.418;2022-07-30T05:11:05;3.00;;;0.68;;
40755;SDS011;26461;45.630;9.418;2022-07-30T05:14:15;5.03;;;0.95;;
40755;SDS011;26461;45.630;9.418;2022-07-30T05:17:25;5.45;;;1.17;;
40755;SDS011;26461;45.630;9.418;2022-07-30T05:20:37;2.72;;;1.10;;
40755;SDS011;26461;45.630;9.418;2022-07-30T05:23:52;2.80;;;0.90;;
40755;SDS011;26461;45.630;9.418;2022-07-30T05:27:11;2.35;;;1.00;;
40755;SDS011;26461;45.630;9.418;2022-07-30T05:30:21;4.88;;;1.42;;
40755;SDS011;26461;45.630;9.418;2022-07-30T05:33:35;2.35;;;0.85;;
40755;SDS011;26461;45.630;9.418;2022-07-30T05:36:46;18.75;;;1.17;;
40755;SDS011;26461;45.630;9.418;2022-07-30T05:39:57;3.13;;;0.80;;
40755;SDS011;26461;45.630;9.418;2022-07-30T05:43:28;3.03;;;1.20;;
40755;SDS011;26461;45.630;9.418;2022-07-30T05:46:38;4.07;;;1.00;;
40755;SDS011;26461;45.630;9.418;2022-07-30T05:49:48;7.88;;;1.70;;
40755;SDS011;26461;45.630;9.418;2022-07-30T05:52:58;6.55;;;1.67;;
40755;SDS011;26461;45.630;9.418;2022-07-30T05:56:34;5.82;;;1.83;;
40755;SDS011;26461;45.630;9.418;2022-07-30T05:59:56;5.18;;;1.52;;
40755;SDS011;26461;45.630;9.418;2022-07-30T06:03:20;3.78;;;1.00;;
40755;SDS011;26461;45.630;9.418;2022-07-30T06:06:50;7.57;;;2.25;;
40755;SDS011;26461;45.630;9.418;2022-07-30T06:10:01;5.00;;;0.68;;
40755;SDS011;26461;45.630;9.418;2022-07-30T06:13:11;4.28;;;1.88;;
40755;SDS011;26461;45.630;9.418;2022-07-30T06:16:21;4.28;;;2.08;;
40755;SDS011;26461;45.630;9.418;2022-07-30T06:19:32;2.28;;;0.50;;
40755;SDS011;26461;45.630;9.418;2022-07-30T06:22:42;4.32;;;0.85;;
40755;SDS011;26461;45.630;9.418;2022-07-30T06:25:59;3.22;;;1.00;;
40755;SDS011;26461;45.630;9.418;2022-07-30T06:29:10;2.55;;;0.40;;
40755;SDS011;26461;45.630;9.418;2022-07-30T06:32:20;2.92;;;0.70;;
40755;SDS011;26461;45.630;9.418;2022-07-30T06:35:30;3.97;;;1.20;;
40755;SDS011;26461;45.630;9.418;2022-07-30T06:38:40;2.95;;;0.80;;
40755;SDS011;26461;45.630;9.418;2022-07-30T06:41:55;3.67;;;0.90;;
40755;SDS011;26461;45.630;9.418;2022-07-30T06:45:25;5.38;;;1.17;;
40755;SDS011;26461;45.630;9.418;2022-07-30T06:48:54;2.78;;;0.60;;
40755;SDS011;26461;45.630;9.418;2022-07-30T06:52:03;2.15;;;0.75;;
40755;SDS011;26461;45.630;9.418;2022-07-30T06:55:22;2.60;;;0.85;;
40755;SDS011;26461;45.630;9.418;2022-07-30T06:58:37;2.25;;;0.68;;
40755;SDS011;26461;45.630;9.418;2022-07-30T07:02:06;6.28;;;0.60;;
40755;SDS011;26461;45.630;9.418;2022-07-30T07:05:41;2.95;;;0.90;;
40755;SDS011;26461;45.630;9.418;2022-07-30T07:08:51;2.80;;;0.90;;
40755;SDS011;26461;45.630;9.418;2022-07-30T07:12:10;2.53;;;0.60;;
40755;SDS011;26461;45.630;9.418;2022-07-30T07:15:21;4.95;;;1.65;;
40755;SDS011;26461;45.630;9.418;2022-07-30T07:18:31;3.25;;;0.70;;
40755;SDS011;26461;45.630;9.418;2022-07-30T07:21:42;4.05;;;0.95;;
40755;SDS011;26461;45.630;9.418;2022-07-30T07:24:52;1.95;;;0.52;;
40755;SDS011;26461;45.630;9.418;2022-07-30T07:28:06;3.38;;;0.70;;
40755;SDS011;26461;45.630;9.418;2022-07-30T07:31:19;2.88;;;0.82;;
40755;SDS011;26461;45.630;9.418;2022-07-30T07:34:30;7.07;;;1.10;;
40755;SDS011;26461;45.630;9.418;2022-07-30T07:37:41;5.82;;;1.10;;
40755;SDS011;26461;45.630;9.418;2022-07-30T07:40:59;2.83;;;2.30;;
40755;SDS011;26461;45.630;9.418;2022-07-30T07:44:10;7.05;;;0.60;;
40755;SDS011;26461;45.630;9.418;2022-07-30T07:47:20;2.65;;;0.80;;
40755;SDS011;26461;45.630;9.418;2022-07-30T07:50:44;2.45;;;0.63;;
40755;SDS011;26461;45.630;9.418;2022-07-30T07:54:01;4.10;;;1.25;;
40755;SDS011;26461;45.630;9.418;2022-07-30T07:57:11;5.00;;;0.70;;
40755;SDS011;26461;45.630;9.418;2022-07-30T08:00:22;3.75;;;0.70;;
40755;SDS011;26461;45.630;9.418;2022-07-30T08:03:32;2.72;;;0.80;;
40755;SDS011;26461;45.630;9.418;2022-07-30T08:07:01;3.50;;;0.82;;
40755;SDS011;26461;45.630;9.418;2022-07-30T08:10:32;2.17;;;0.77;;
40755;SDS011;26461;45.630;9.418;2022-07-30T08:14:00;5.97;;;2.40;;
40755;SDS011;26461;45.630;9.418;2022-07-30T08:17:43;4.40;;;0.50;;
40755;SDS011;26461;45.630;9.418;2022-07-30T08:20:56;1.80;;;0.50;;
40755;SDS011;26461;45.630;9.418;2022-07-30T08:24:10;3.03;;;0.90;;
40755;SDS011;26461;45.630;9.418;2022-07-30T08:27:20;3.45;;;0.70;;
40755;SDS011;26461;45.630;9.418;2022-07-30T08:30:25;3.40;;;0.52;;
40755;SDS011;26461;45.630;9.418;2022-07-30T08:33:35;3.55;;;0.80;;
40755;SDS011;26461;45.630;9.418;2022-07-30T08:36:40;3.13;;;1.88;;
40755;SDS011;26461;45.630;9.418;2022-07-30T08:39:52;3.75;;;1.00;;
40755;SDS011;26461;45.630;9.418;2022-07-30T08:43:02;5.63;;;0.93;;
40755;SDS011;26461;45.630;9.418;2022-07-30T08:46:15;6.63;;;2.15;;
40755;SDS011;26461;45.630;9.418;2022-07-30T08:49:32;3.80;;;1.35;;
40755;SDS011;26461;45.630;9.418;2022-07-30T08:52:43;4.32;;;1.45;;
40755;SDS011;26461;45.630;9.418;2022-07-30T08:55:53;5.10;;;1.75;;
40755;SDS011;26461;45.630;9.418;2022-07-30T08:59:03;5.78;;;3.47;;
40755;SDS011;26461;45.630;9.418;2022-07-30T09:02:15;4.07;;;0.88;;
40755;SDS011;26461;45.630;9.418;2022-07-30T09:05:35;3.65;;;1.42;;
40755;SDS011;26461;45.630;9.418;2022-07-30T09:08:45;3.40;;;1.52;;
40755;SDS011;26461;45.630;9.418;2022-07-30T09:11:55;4.15;;;1.50;;
40755;SDS011;26461;45.630;9.418;2022-07-30T09:15:07;5.22;;;1.65;;
40755;SDS011;26461;45.630;9.418;2022-07-30T09:18:26;3.05;;;1.45;;
40755;SDS011;26461;45.630;9.418;2022-07-30T09:21:40;3.67;;;1.10;;
40755;SDS011;26461;45.630;9.418;2022-07-30T09:25:06;3.17;;;0.80;;
40755;SDS011;26461;45.630;9.418;2022-07-30T09:28:35;4.32;;;1.98;;
40755;SDS011;26461;45.630;9.418;2022-07-30T09:31:55;5.40;;;1.98;;
40755;SDS011;26461;45.630;9.418;2022-07-30T09:35:25;5.85;;;2.35;;
40755;SDS011;26461;45.630;9.418;2022-07-30T09:38:49;5.03;;;2.38;;
40755;SDS011;26461;45.630;9.418;2022-07-30T09:42:24;3.08;;;0.88;;
40755;SDS011;26461;45.630;9.418;2022-07-30T09:45:53;3.40;;;1.98;;
40755;SDS011;26461;45.630;9.418;2022-07-30T09:49:12;8.20;;;2.38;;
40755;SDS011;26461;45.630;9.418;2022-07-30T09:52:27;9.20;;;1.58;;
40755;SDS011;26461;45.630;9.418;2022-07-30T09:55:39;3.60;;;0.90;;
40755;SDS011;26461;45.630;9.418;2022-07-30T09:58:50;5.47;;;1.60;;
40755;SDS011;26461;45.630;9.418;2022-07-30T10:02:01;3.42;;;1.52;;
40755;SDS011;26461;45.630;9.418;2022-07-30T10:05:31;12.55;;;2.13;;
40755;SDS011;26461;45.630;9.418;2022-07-30T10:08:46;8.88;;;3.45;;
40755;SDS011;26461;45.630;9.418;2022-07-30T10:12:02;4.78;;;3.20;;
40755;SDS011;26461;45.630;9.418;2022-07-30T10:15:14;10.57;;;5.20;;
40755;SDS011;26461;45.630;9.418;2022-07-30T10:18:29;12.73;;;4.90;;
40755;SDS011;26461;45.630;9.418;2022-07-30T10:22:12;5.30;;;1.98;;
40755;SDS011;26461;45.630;9.418;2022-07-30T10:25:41;3.95;;;3.17;;
40755;SDS011;26461;45.630;9.418;2022-07-30T10:29:13;7.03;;;3.65;;
40755;SDS011;26461;45.630;9.418;2022-07-30T10:32:26;6.95;;;3.03;;
40755;SDS011;26461;45.630;9.418;2022-07-30T10:35:36;7.85;;;5.90;;
40755;SDS011;26461;45.630;9.418;2022-07-30T10:38:46;13.15;;;6.53;;
40755;SDS011;26461;45.630;9.418;2022-07-30T10:42:18;9.30;;;4.05;;
40755;SDS011;26461;45.630;9.418;2022-07-30T10:45:44;7.35;;;4.10;;
40755;SDS011;26461;45.630;9.418;2022-07-30T10:49:10;6.68;;;4.05;;
40755;SDS011;26461;45.630;9.418;2022-07-30T10:52:42;17.75;;;4.90;;
40755;SDS011;26461;45.630;9.418;2022-07-30T10:56:20;7.40;;;5.05;;
40755;SDS011;26461;45.630;9.418;2022-07-30T11:03:13;10.40;;;3.60;;
40755;SDS011;26461;45.630;9.418;2022-07-30T11:06:25;7.72;;;3.00;;
40755;SDS011;26461;45.630;9.418;2022-07-30T11:09:40;5.90;;;3.80;;
40755;SDS011;26461;45.630;9.418;2022-07-30T11:12:51;10.40;;;3.65;;
40755;SDS011;26461;45.630;9.418;2022-07-30T11:16:03;7.15;;;3.85;;
40755;SDS011;26461;45.630;9.418;2022-07-30T11:19:14;4.45;;;2.55;;
40755;SDS011;26461;45.630;9.418;2022-07-30T11:22:30;8.65;;;5.90;;
40755;SDS011;26461;45.630;9.418;2022-07-30T11:26:04;7.88;;;4.30;;
40755;SDS011;26461;45.630;9.418;2022-07-30T11:32:51;6.95;;;5.25;;
40755;SDS011;26461;45.630;9.418;2022-07-30T11:36:08;6.40;;;2.40;;
40755;SDS011;26461;45.630;9.418;2022-07-30T11:39:20;10.13;;;4.03;;
40755;SDS011;26461;45.630;9.418;2022-07-30T11:42:31;8.60;;;2.92;;
40755;SDS011;26461;45.630;9.418;2022-07-30T11:45:47;14.68;;;5.22;;
40755;SDS011;26461;45.630;9.418;2022-07-30T11:49:02;13.25;;;4.28;;
40755;SDS011;26461;45.630;9.418;2022-07-30T11:52:21;4.90;;;3.13;;
40755;SDS011;26461;45.630;9.418;2022-07-30T11:55:32;7.95;;;4.05;;
40755;SDS011;26461;45.630;9.418;2022-07-30T11:58:47;4.85;;;2.40;;
40755;SDS011;26461;45.630;9.418;2022-07-30T12:01:57;10.50;;;3.65;;
40755;SDS011;26461;45.630;9.418;2022-07-30T12:05:09;7.20;;;3.13;;
40755;SDS011;26461;45.630;9.418;2022-07-30T12:08:20;8.15;;;2.80;;
40755;SDS011;26461;45.630;9.418;2022-07-30T12:11:31;9.98;;;2.35;;
40755;SDS011;26461;45.630;9.418;2022-07-30T12:14:42;4.22;;;1.85;;
40755;SDS011;26461;45.630;9.418;2022-07-30T12:17:52;6.50;;;2.10;;
40755;SDS011;26461;45.630;9.418;2022-07-30T12:21:04;7.03;;;3.60;;
40755;SDS011;26461;45.630;9.418;2022-07-30T12:24:25;8.27;;;2.38;;
40755;SDS011;26461;45.630;9.418;2022-07-30T12:27:35;3.20;;;1.50;;
40755;SDS011;26461;45.630;9.418;2022-07-30T12:30:45;5.38;;;2.10;;
40755;SDS011;26461;45.630;9.418;2022-07-30T12:33:56;7.63;;;2.17;;
40755;SDS011;26461;45.630;9.418;2022-07-30T12:37:07;7.47;;;1.90;;
40755;SDS011;26461;45.630;9.418;2022-07-30T12:40:17;4.80;;;2.22;;
40755;SDS011;26461;45.630;9.418;2022-07-30T12:46:59;6.95;;;2.20;;
40755;SDS011;26461;45.630;9.418;2022-07-30T12:50:16;4.88;;;1.63;;
40755;SDS011;26461;45.630;9.418;2022-07-30T12:53:29;4.85;;;1.85;;
40755;SDS011;26461;45.630;9.418;2022-07-30T12:56:39;5.70;;;3.97;;
40755;SDS011;26461;45.630;9.418;2022-07-30T13:00:02;3.40;;;1.70;;
40755;SDS011;26461;45.630;9.418;2022-07-30T13:03:21;5.30;;;2.35;;
40755;SDS011;26461;45.630;9.418;2022-07-30T13:06:35;4.70;;;1.35;;
40755;SDS011;26461;45.630;9.418;2022-07-30T13:09:46;2.53;;;1.30;;
40755;SDS011;26461;45.630;9.418;2022-07-30T13:12:56;3.60;;;1.58;;
40755;SDS011;26461;45.630;9.418;2022-07-30T13:16:06;5.47;;;1.58;;
40755;SDS011;26461;45.630;9.418;2022-07-30T13:19:16;3.15;;;1.10;;
40755;SDS011;26461;45.630;9.418;2022-07-30T13:22:26;3.30;;;1.27;;
40755;SDS011;26461;45.630;9.418;2022-07-30T13:25:36;3.00;;;1.42;;
40755;SDS011;26461;45.630;9.418;2022-07-30T13:28:46;4.65;;;1.23;;
40755;SDS011;26461;45.630;9.418;2022-07-30T13:31:56;5.70;;;1.25;;
40755;SDS011;26461;45.630;9.418;2022-07-30T13:35:06;7.85;;;1.85;;
40755;SDS011;26461;45.630;9.418;2022-07-30T13:38:16;4.00;;;1.67;;
40755;SDS011;26461;45.630;9.418;2022-07-30T13:41:27;3.45;;;2.20;;
40755;SDS011;26461;45.630;9.418;2022-07-30T13:44:37;2.85;;;1.25;;
40755;SDS011;26461;45.630;9.418;2022-07-30T13:47:47;2.80;;;1.13;;
40755;SDS011;26461;45.630;9.418;2022-07-30T13:51:01;6.80;;;3.05;;
40755;SDS011;26461;45.630;9.418;2022-07-30T13:54:12;6.30;;;1.25;;
40755;SDS011;26461;45.630;9.418;2022-07-30T13:57:21;5.95;;;1.67;;
40755;SDS011;26461;45.630;9.418;2022-07-30T14:00:32;6.03;;;1.95;;
40755;SDS011;26461;45.630;9.418;2022-07-30T14:03:45;3.47;;;2.03;;
40755;SDS011;26461;45.630;9.418;2022-07-30T14:06:50;4.80;;;2.00;;
40755;SDS011;26461;45.630;9.418;2022-07-30T14:10:00;3.97;;;1.40;;
40755;SDS011;26461;45.630;9.418;2022-07-30T14:13:10;4.25;;;1.65;;
40755;SDS011;26461;45.630;9.418;2022-07-30T14:16:20;4.50;;;2.03;;
40755;SDS011;26461;45.630;9.418;2022-07-30T14:19:30;3.97;;;1.35;;
40755;SDS011;26461;45.630;9.418;2022-07-30T14:22:40;2.25;;;0.90;;
40755;SDS011;26461;45.630;9.418;2022-07-30T14:25:50;7.38;;;1.83;;
40755;SDS011;26461;45.630;9.418;2022-07-30T14:29:00;2.22;;;0.82;;
40755;SDS011;26461;45.630;9.418;2022-07-30T14:32:10;1.90;;;0.60;;
40755;SDS011;26461;45.630;9.418;2022-07-30T14:35:21;2.00;;;0.70;;
40755;SDS011;26461;45.630;9.418;2022-07-30T14:38:26;2.65;;;0.60;;
40755;SDS011;26461;45.630;9.418;2022-07-30T14:41:36;3.35;;;0.50;;
40755;SDS011;26461;45.630;9.418;2022-07-30T14:44:47;2.13;;;0.40;;
40755;SDS011;26461;45.630;9.418;2022-07-30T14:47:57;2.38;;;0.70;;
40755;SDS011;26461;45.630;9.418;2022-07-30T14:51:07;1.90;;;0.50;;
40755;SDS011;26461;45.630;9.418;2022-07-30T14:54:17;4.25;;;1.25;;
40755;SDS011;26461;45.630;9.418;2022-07-30T14:57:27;2.25;;;0.60;;
40755;SDS011;26461;45.630;9.418;2022-07-30T15:00:37;3.17;;;0.90;;
40755;SDS011;26461;45.630;9.418;2022-07-30T15:03:47;2.17;;;0.90;;
40755;SDS011;26461;45.630;9.418;2022-07-30T15:06:52;1.80;;;0.50;;
40755;SDS011;26461;45.630;9.418;2022-07-30T15:10:03;2.13;;;0.60;;
40755;SDS011;26461;45.630;9.418;2022-07-30T15:13:15;2.00;;;0.60;;
40755;SDS011;26461;45.630;9.418;2022-07-30T15:16:25;3.80;;;0.65;;
40755;SDS011;26461;45.630;9.418;2022-07-30T15:19:35;1.98;;;0.50;;
40755;SDS011;26461;45.630;9.418;2022-07-30T15:22:45;1.70;;;0.50;;
40755;SDS011;26461;45.630;9.418;2022-07-30T15:25:55;2.30;;;0.73;;
40755;SDS011;26461;45.630;9.418;2022-07-30T15:29:05;2.35;;;0.55;;
40755;SDS011;26461;45.630;9.418;2022-07-30T15:32:10;1.83;;;0.50;;
40755;SDS011;26461;45.630;9.418;2022-07-30T15:35:20;2.55;;;0.50;;
40755;SDS011;26461;45.630;9.418;2022-07-30T15:38:29;2.50;;;0.50;;
40755;SDS011;26461;45.630;9.418;2022-07-30T15:41:39;2.83;;;0.80;;
40755;SDS011;26461;45.630;9.418;2022-07-30T15:44:49;1.70;;;0.63;;
40755;SDS011;26461;45.630;9.418;2022-07-30T15:47:59;1.40;;;0.40;;
40755;SDS011;26461;45.630;9.418;2022-07-30T15:51:10;2.00;;;0.60;;
40755;SDS011;26461;45.630;9.418;2022-07-30T15:54:20;1.63;;;0.50;;
40755;SDS011;26461;45.630;9.418;2022-07-30T15:57:33;1.58;;;0.50;;
40755;SDS011;26461;45.630;9.418;2022-07-30T16:00:43;1.58;;;0.50;;
40755;SDS011;26461;45.630;9.418;2022-07-30T16:03:53;1.75;;;0.50;;
40755;SDS011;26461;45.630;9.418;2022-07-30T16:07:03;2.15;;;0.65;;
40755;SDS011;26461;45.630;9.418;2022-07-30T16:10:14;4.43;;;0.65;;
40755;SDS011;26461;45.630;9.418;2022-07-30T16:13:24;2.00;;;0.55;;
40755;SDS011;26461;45.630;9.418;2022-07-30T16:16:34;1.90;;;0.47;;
40755;SDS011;26461;45.630;9.418;2022-07-30T16:19:44;2.10;;;0.50;;
40755;SDS011;26461;45.630;9.418;2022-07-30T16:22:54;1.63;;;0.40;;
40755;SDS011;26461;45.630;9.418;2022-07-30T16:26:04;2.13;;;0.57;;
40755;SDS011;26461;45.630;9.418;2022-07-30T16:29:13;1.50;;;0.50;;
40755;SDS011;26461;45.630;9.418;2022-07-30T16:32:23;2.30;;;0.55;;
40755;SDS011;26461;45.630;9.418;2022-07-30T16:35:33;4.65;;;1.30;;
40755;SDS011;26461;45.630;9.418;2022-07-30T16:38:43;1.50;;;0.40;;
40755;SDS011;26461;45.630;9.418;2022-07-30T16:41:54;2.95;;;0.50;;
40755;SDS011;26461;45.630;9.418;2022-07-30T16:45:05;8.80;;;0.95;;
40755;SDS011;26461;45.630;9.418;2022-07-30T16:48:15;1.50;;;0.43;;
40755;SDS011;26461;45.630;9.418;2022-07-30T16:51:25;1.75;;;0.50;;
40755;SDS011;26461;45.630;9.418;2022-07-30T16:54:35;1.50;;;0.50;;
40755;SDS011;26461;45.630;9.418;2022-07-30T16:57:45;1.70;;;0.50;;
40755;SDS011;26461;45.630;9.418;2022-07-30T17:00:54;1.80;;;0.50;;
40755;SDS011;26461;45.630;9.418;2022-07-30T17:04:06;2.85;;;0.65;;
40755;SDS011;26461;45.630;9.418;2022-07-30T17:07:16;1.75;;;0.77;;
40755;SDS011;26461;45.630;9.418;2022-07-30T17:10:25;1.83;;;0.50;;
40755;SDS011;26461;45.630;9.418;2022-07-30T17:13:35;2.50;;;1.00;;
40755;SDS011;26461;45.630;9.418;2022-07-30T17:16:45;2.10;;;0.40;;
40755;SDS011;26461;45.630;9.418;2022-07-30T17:19:55;1.40;;;0.40;;
40755;SDS011;26461;45.630;9.418;2022-07-30T17:23:05;1.40;;;0.45;;
40755;SDS011;26461;45.630;9.418;2022-07-30T17:26:16;3.40;;;0.40;;
40755;SDS011;26461;45.630;9.418;2022-07-30T17:29:25;1.95;;;0.40;;
40755;SDS011;26461;45.630;9.418;2022-07-30T17:32:35;1.50;;;0.45;;
40755;SDS011;26461;45.630;9.418;2022-07-30T17:35:45;1.70;;;0.50;;
40755;SDS011;26461;45.630;9.418;2022-07-30T17:38:55;2.13;;;0.40;;
40755;SDS011;26461;45.630;9.418;2022-07-30T17:42:05;2.45;;;0.80;;
40755;SDS011;26461;45.630;9.418;2022-07-30T17:45:15;1.65;;;0.40;;
40755;SDS011;26461;45.630;9.418;2022-07-30T17:48:25;2.40;;;1.00;;
40755;SDS011;26461;45.630;9.418;2022-07-30T17:51:35;1.77;;;0.50;;
40755;SDS011;26461;45.630;9.418;2022-07-30T17:54:45;1.90;;;0.40;;
40755;SDS011;26461;45.630;9.418;2022-07-30T17:57:55;1.48;;;0.40;;
40755;SDS011;26461;45.630;9.418;2022-07-30T18:01:05;1.80;;;0.73;;
40755;SDS011;26461;45.630;9.418;2022-07-30T18:04:15;1.42;;;0.40;;
40755;SDS011;26461;45.630;9.418;2022-07-30T18:07:25;3.38;;;0.45;;
40755;SDS011;26461;45.630;9.418;2022-07-30T18:10:37;1.70;;;0.40;;
40755;SDS011;26461;45.630;9.418;2022-07-30T18:13:46;1.92;;;0.40;;
40755;SDS011;26461;45.630;9.418;2022-07-30T18:16:57;2.42;;;0.50;;
40755;SDS011;26461;45.630;9.418;2022-07-30T18:20:08;4.53;;;0.50;;
40755;SDS011;26461;45.630;9.418;2022-07-30T18:23:19;1.40;;;0.40;;
40755;SDS011;26461;45.630;9.418;2022-07-30T18:26:29;2.70;;;0.50;;
40755;SDS011;26461;45.630;9.418;2022-07-30T18:29:44;2.28;;;0.60;;
40755;SDS011;26461;45.630;9.418;2022-07-30T18:32:54;1.60;;;0.50;;
40755;SDS011;26461;45.630;9.418;2022-07-30T18:36:04;1.60;;;0.50;;
40755;SDS011;26461;45.630;9.418;2022-07-30T18:39:14;1.75;;;0.40;;
40755;SDS011;26461;45.630;9.418;2022-07-30T18:42:24;2.33;;;0.47;;
40755;SDS011;26461;45.630;9.418;2022-07-30T18:45:34;1.67;;;0.50;;
40755;SDS011;26461;45.630;9.418;2022-07-30T18:48:44;2.58;;;0.60;;
40755;SDS011;26461;45.630;9.418;2022-07-30T18:51:55;1.88;;;0.60;;
40755;SDS011;26461;45.630;9.418;2022-07-30T18:55:05;2.65;;;0.55;;
40755;SDS011;26461;45.630;9.418;2022-07-30T18:58:16;3.10;;;0.70;;
40755;SDS011;26461;45.630;9.418;2022-07-30T19:01:26;2.10;;;0.50;;
40755;SDS011;26461;45.630;9.418;2022-07-30T19:04:36;2.55;;;0.40;;
40755;SDS011;26461;45.630;9.418;2022-07-30T19:07:46;2.25;;;0.50;;
40755;SDS011;26461;45.630;9.418;2022-07-30T19:10:56;6.18;;;0.98;;
40755;SDS011;26461;45.630;9.418;2022-07-30T19:14:06;4.75;;;0.70;;
40755;SDS011;26461;45.630;9.418;2022-07-30T19:17:17;2.13;;;0.70;;
40755;SDS011;26461;45.630;9.418;2022-07-30T19:20:27;2.22;;;0.57;;
40755;SDS011;26461;45.630;9.418;2022-07-30T19:23:37;1.63;;;0.57;;
40755;SDS011;26461;45.630;9.418;2022-07-30T19:26:47;3.88;;;1.02;;
40755;SDS011;26461;45.630;9.418;2022-07-30T19:29:53;3.15;;;0.60;;
40755;SDS011;26461;45.630;9.418;2022-07-30T19:33:07;2.92;;;0.80;;
40755;SDS011;26461;45.630;9.418;2022-07-30T19:36:19;2.10;;;0.60;;